createdAt,value
2023-01-11T00:01:49.448Z,0.30
2023-01-11T00:06:53.130Z,0.33
2023-01-11T00:11:56.765Z,0.40
2023-01-11T00:17:01.764Z,0.27
2023-01-11T00:22:05.509Z,0.30
2023-01-11T00:27:09.503Z,0.40
2023-01-11T00:32:14.518Z,0.30
2023-01-11T00:37:18.151Z,0.50
2023-01-11T00:42:39.324Z,0.30
2023-01-11T00:48:00.453Z,0.50
2023-01-11T00:53:04.651Z,0.20
2023-01-11T00:58:08.254Z,0.20
2023-01-11T01:03:13.217Z,0.30
2023-01-11T01:08:16.867Z,0.30
2023-01-11T01:13:37.923Z,0.40
2023-01-11T01:18:42.946Z,0.30
2023-01-11T01:23:46.703Z,0.20
2023-01-11T01:28:50.945Z,0.30
2023-01-11T01:33:55.875Z,0.20
2023-01-11T01:39:00.962Z,0.10
2023-01-11T01:44:07.201Z,0.60
2023-01-11T01:49:16.558Z,0.27
2023-01-11T01:54:23.767Z,0.30
2023-01-11T01:59:31.335Z,0.20
2023-01-11T02:04:40.807Z,0.27
2023-01-11T02:09:48.285Z,0.83
2023-01-11T02:14:54.540Z,0.20
2023-01-11T02:20:10.247Z,0.30
2023-01-11T02:25:38.134Z,0.20
2023-01-11T02:30:51.288Z,0.57
2023-01-11T02:36:05.954Z,0.20
2023-01-11T02:41:20.316Z,0.30
2023-01-11T02:46:32.871Z,0.27
2023-01-11T02:51:41.776Z,0.20
2023-01-11T02:56:49.411Z,0.20
2023-01-11T03:01:56.005Z,0.10
2023-01-11T03:07:12.436Z,0.30
2023-01-11T03:12:50.929Z,0.30
2023-01-11T03:18:04.963Z,0.20
2023-01-11T03:23:16.944Z,0.20
2023-01-11T03:28:28.231Z,0.20
2023-01-11T03:33:39.046Z,0.30
2023-01-11T03:38:49.012Z,0.30
2023-01-11T03:43:56.494Z,0.20
2023-01-11T03:49:06.017Z,0.20
2023-01-11T03:54:13.698Z,0.43
2023-01-11T03:59:17.425Z,0.30
2023-01-11T04:04:22.830Z,0.20
2023-01-11T04:09:26.399Z,0.30
2023-01-11T04:14:29.978Z,0.30
2023-01-11T04:19:35.016Z,0.30
2023-01-11T04:24:39.197Z,0.20
2023-01-11T04:29:43.302Z,0.20
2023-01-11T04:34:48.276Z,0.20
2023-01-11T04:39:51.880Z,0.43
2023-01-11T04:44:55.485Z,0.10
2023-01-11T04:50:00.586Z,0.17
2023-01-11T04:55:04.712Z,0.70
2023-01-11T05:00:10.926Z,0.20
2023-01-11T05:05:15.940Z,0.20
2023-01-11T05:10:21.133Z,0.10
2023-01-11T05:15:25.070Z,0.23
2023-01-11T05:20:29.967Z,0.20
2023-01-11T05:25:33.543Z,0.40
2023-01-11T05:30:37.165Z,0.10
2023-01-11T05:35:42.151Z,0.20
2023-01-11T05:40:45.962Z,0.10
2023-01-11T05:45:49.869Z,1.50
2023-01-11T05:50:55.834Z,0.03
2023-01-11T05:56:00.210Z,0.20
2023-01-11T06:01:04.206Z,0.30
2023-01-11T06:06:09.728Z,0.20
2023-01-11T06:11:14.587Z,0.57
2023-01-11T06:16:19.810Z,0.20
2023-01-11T06:21:25.115Z,0.70
2023-01-11T06:26:28.819Z,1.70
2023-01-11T06:31:32.370Z,0.30
2023-01-11T06:36:37.295Z,0.20
2023-01-11T06:41:40.893Z,0.20
2023-01-11T06:46:44.443Z,0.10
2023-01-11T06:51:49.376Z,0.10
2023-01-11T06:56:52.922Z,0.20
2023-01-11T07:01:56.537Z,0.20
2023-01-11T07:07:01.445Z,0.20
2023-01-11T07:12:05.433Z,0.20
2023-01-11T07:17:08.998Z,0.10
2023-01-11T07:22:15.933Z,0.10
2023-01-11T07:27:20.804Z,0.10
2023-01-11T07:32:24.392Z,0.10
2023-01-11T07:37:32.590Z,0.00
2023-01-11T07:42:53.618Z,0.20
2023-01-11T07:47:57.203Z,0.10
2023-01-11T07:53:02.547Z,0.10
2023-01-11T07:58:06.554Z,0.20
2023-01-11T08:03:11.025Z,0.13
2023-01-11T08:08:16.045Z,1.40
2023-01-11T08:13:36.891Z,0.10
2023-01-11T08:18:40.365Z,0.10
2023-01-11T08:23:45.347Z,0.20
2023-01-11T08:28:48.948Z,0.23
2023-01-11T08:33:52.910Z,0.00
2023-01-11T08:38:58.335Z,0.73
2023-01-11T08:44:02.083Z,0.53
2023-01-11T08:49:11.950Z,0.10
2023-01-11T08:54:17.692Z,0.20
2023-01-11T08:59:22.043Z,0.17
2023-01-11T09:04:26.480Z,0.67
2023-01-11T09:09:31.733Z,0.30
2023-01-11T09:14:35.341Z,0.20
2023-01-11T09:19:38.898Z,0.20
2023-01-11T09:24:43.819Z,0.17
2023-01-11T09:29:47.382Z,0.43
2023-01-11T09:34:53.481Z,0.20
2023-01-11T09:39:59.568Z,0.10
2023-01-11T09:45:11.451Z,0.10
2023-01-11T09:50:19.969Z,0.23
2023-01-11T09:55:33.863Z,0.20
2023-01-11T10:00:50.311Z,0.63
2023-01-11T10:06:04.003Z,0.67
2023-01-11T10:18:31.013Z,0.90
2023-01-11T10:22:23.398Z,0.47
2023-01-11T10:27:35.649Z,1.53
2023-01-11T10:33:03.147Z,2.00
2023-01-11T10:38:30.652Z,1.33
2023-01-11T10:43:41.475Z,2.57
2023-01-11T10:48:46.429Z,1.17
2023-01-11T10:53:59.778Z,1.80
2023-01-11T10:59:22.501Z,0.70
2023-01-11T11:04:56.623Z,1.23
2023-01-11T11:10:06.392Z,2.77
2023-01-11T11:15:16.555Z,0.70
2023-01-11T11:20:21.557Z,2.57
2023-01-11T11:25:30.816Z,2.47
2023-01-11T11:30:38.746Z,2.87
2023-01-11T11:35:46.225Z,3.33
2023-01-11T11:40:59.069Z,2.00
2023-01-11T11:46:06.209Z,1.67
2023-01-11T11:51:15.590Z,2.87
2023-01-11T11:56:24.112Z,2.07
2023-01-11T12:01:32.527Z,2.10
2023-01-11T12:06:36.357Z,0.77
2023-01-11T12:11:42.137Z,1.60
2023-01-11T12:16:47.615Z,3.23
2023-01-11T12:21:52.196Z,2.07
2023-01-11T12:27:08.939Z,1.43
2023-01-11T12:32:33.993Z,2.03
2023-01-11T12:38:06.449Z,4.77
2023-01-11T12:43:25.404Z,2.17
2023-01-11T12:48:51.439Z,1.07
2023-01-11T12:54:09.971Z,1.77
2023-01-11T12:59:25.176Z,2.03
2023-01-11T13:04:46.415Z,3.30
2023-01-11T13:10:05.374Z,2.47
2023-01-11T13:15:24.902Z,2.83
2023-01-11T13:20:59.309Z,1.00
2023-01-11T13:26:16.731Z,1.83
2023-01-11T13:31:21.091Z,1.00
2023-01-11T13:36:32.172Z,2.27
2023-01-11T13:41:42.530Z,2.93
2023-01-11T13:46:56.268Z,2.87
2023-01-11T13:52:04.989Z,0.70
2023-01-11T13:57:14.226Z,1.20
2023-01-11T14:02:24.216Z,2.23
2023-01-11T14:07:38.547Z,4.30
2023-01-11T14:12:56.698Z,4.33
2023-01-11T14:18:26.058Z,3.93
2023-01-11T14:23:41.049Z,2.60
2023-01-11T14:28:59.355Z,2.73
2023-01-11T14:34:34.747Z,3.03
2023-01-11T14:40:14.303Z,1.90
2023-01-11T14:45:26.518Z,2.00
2023-01-11T14:50:42.696Z,2.30
2023-01-11T14:55:49.128Z,1.83
2023-01-11T15:01:09.039Z,2.90
2023-01-11T15:06:16.841Z,2.20
2023-01-11T15:11:38.116Z,4.33
2023-01-11T15:16:59.574Z,2.13
2023-01-11T15:22:05.885Z,2.63
2023-01-11T15:27:26.202Z,2.13
2023-01-11T15:32:32.589Z,2.40
2023-01-11T15:37:49.604Z,1.93
2023-01-11T15:43:41.515Z,1.47
2023-01-11T15:49:14.216Z,3.47
2023-01-11T15:54:55.882Z,2.40
2023-01-11T16:00:32.487Z,1.63
2023-01-11T16:05:44.796Z,2.33
2023-01-11T16:11:06.333Z,4.67
2023-01-11T16:16:20.199Z,2.67
2023-01-11T16:21:33.136Z,1.87
2023-01-11T16:26:41.898Z,2.97
2023-01-11T16:32:00.723Z,0.87
2023-01-11T16:37:21.835Z,2.80
2023-01-11T16:42:28.577Z,3.40
2023-01-11T16:47:32.249Z,1.53
2023-01-11T16:52:50.417Z,2.30
2023-01-11T16:57:57.407Z,3.27
2023-01-11T17:03:17.251Z,2.63
2023-01-11T17:08:31.564Z,1.80
2023-01-11T17:14:03.298Z,1.40
2023-01-11T17:19:15.463Z,1.27
2023-01-11T17:24:24.823Z,3.10
2023-01-11T17:29:31.732Z,1.33
2023-01-11T17:34:36.921Z,1.77
2023-01-11T17:39:46.504Z,2.27
2023-01-11T17:45:09.387Z,2.97
2023-01-11T17:50:28.896Z,2.50
2023-01-11T17:55:34.733Z,6.43
2023-01-11T18:00:39.182Z,3.73
2023-01-11T18:05:44.188Z,2.33
2023-01-11T18:10:55.927Z,2.23
2023-01-11T18:15:59.921Z,1.27
2023-01-11T18:21:03.530Z,2.13
2023-01-11T18:26:28.085Z,2.20
2023-01-11T18:31:31.835Z,2.07
2023-01-11T18:36:35.497Z,2.87
2023-01-11T18:41:58.264Z,2.80
2023-01-11T18:47:13.669Z,0.80
2023-01-11T18:52:17.682Z,2.73
2023-01-11T18:57:23.709Z,2.77
2023-01-11T19:02:30.464Z,2.63
2023-01-11T19:07:34.040Z,3.07
2023-01-11T19:12:39.170Z,2.50
2023-01-11T19:17:43.511Z,2.27
2023-01-11T19:22:47.071Z,4.13
2023-01-11T19:27:54.764Z,2.97
2023-01-11T19:32:58.781Z,4.00
2023-01-11T19:38:02.354Z,2.07
2023-01-11T19:43:07.261Z,1.60
2023-01-11T19:48:10.939Z,2.80
2023-01-11T19:53:14.552Z,2.93
2023-01-11T19:58:19.953Z,2.77
2023-01-11T20:03:23.717Z,2.63
2023-01-11T20:08:27.372Z,1.73
2023-01-11T20:13:32.342Z,1.20
2023-01-11T20:18:36.007Z,6.97
2023-01-11T20:23:39.574Z,2.93
2023-01-11T20:28:45.674Z,5.27
2023-01-11T20:33:49.219Z,2.17
2023-01-11T20:38:54.010Z,3.00
2023-01-11T20:43:58.893Z,2.83
2023-01-11T20:49:02.794Z,3.13
2023-01-11T20:54:07.512Z,5.00
2023-01-11T20:59:13.633Z,6.13
2023-01-11T21:04:18.672Z,3.57
2023-01-11T21:09:22.659Z,2.63
2023-01-11T21:14:27.719Z,2.57
2023-01-11T21:19:31.808Z,2.70
2023-01-11T21:24:38.496Z,2.73
2023-01-11T21:29:43.731Z,2.70
2023-01-11T21:34:47.249Z,2.63
2023-01-11T21:39:51.720Z,3.40
2023-01-11T21:44:56.639Z,4.03
2023-01-11T21:50:00.628Z,3.83
2023-01-11T21:55:04.343Z,3.37
2023-01-11T22:00:12.579Z,2.73
2023-01-11T22:05:16.477Z,2.50
2023-01-11T22:10:20.169Z,2.97
2023-01-11T22:15:25.334Z,4.20
2023-01-11T22:20:29.044Z,2.70
2023-01-11T22:25:32.642Z,4.77
2023-01-11T22:30:37.600Z,4.63
2023-01-11T22:35:41.178Z,2.03
2023-01-11T22:40:44.803Z,3.73
2023-01-11T22:45:58.994Z,2.10
2023-01-11T22:51:06.863Z,2.97
2023-01-11T22:56:12.591Z,4.93
2023-01-11T23:01:19.858Z,2.97
2023-01-11T23:06:25.433Z,2.63
2023-01-11T23:11:49.131Z,1.93
2023-01-11T23:16:54.189Z,3.17
2023-01-11T23:21:57.943Z,3.50
2023-01-11T23:27:02.167Z,3.60
2023-01-11T23:32:07.368Z,6.13
2023-01-11T23:37:11.132Z,3.70
2023-01-11T23:42:27.095Z,5.90
2023-01-11T23:47:32.071Z,4.63
2023-01-11T23:52:35.717Z,2.37
2023-01-11T23:58:00.331Z,3.03
